sensor_id;sensor_type;location;lat;lon;timestamp;pressure;altitude;pressure_sealevel;temperature;humidity
78064;BME280;67429;51.596;-3.264;2024-02-26T00:01:24;97836.09;;;1.14;100.00
78064;BME280;67429;51.596;-3.264;2024-02-26T00:03:50;97835.00;;;1.03;100.00
78064;BME280;67429;51.596;-3.264;2024-02-26T00:06:16;97828.19;;;1.01;100.00
78064;BME280;67429;51.596;-3.264;2024-02-26T00:08:42;97849.47;;;0.78;100.00
78064;BME280;67429;51.596;-3.264;2024-02-26T00:11:07;97826.95;;;0.44;100.00
78064;BME280;67429;51.596;-3.264;2024-02-26T00:13:33;97842.22;;;1.07;100.00
78064;BME280;67429;51.596;-3.264;2024-02-26T00:15:59;97860.38;;;1.36;100.00
78064;BME280;67429;51.596;-3.264;2024-02-26T00:18:25;97846.90;;;1.45;100.00
78064;BME280;67429;51.596;-3.264;2024-02-26T00:20:50;97873.10;;;0.80;100.00
78064;BME280;67429;51.596;-3.264;2024-02-26T00:23:16;97889.77;;;0.89;100.00
78064;BME280;67429;51.596;-3.264;2024-02-26T00:25:42;97882.46;;;0.76;100.00
78064;BME280;67429;51.596;-3.264;2024-02-26T00:28:08;97880.88;;;1.15;100.00
78064;BME280;67429;51.596;-3.264;2024-02-26T00:30:34;97894.54;;;1.08;100.00
78064;BME280;67429;51.596;-3.264;2024-02-26T00:32:59;97901.56;;;0.61;100.00
78064;BME280;67429;51.596;-3.264;2024-02-26T00:35:26;97916.52;;;1.07;100.00
78064;BME280;67429;51.596;-3.264;2024-02-26T00:37:51;97905.32;;;0.90;100.00
78064;BME280;67429;51.596;-3.264;2024-02-26T00:40:16;97908.37;;;0.50;100.00
78064;BME280;67429;51.596;-3.264;2024-02-26T00:42:42;97925.08;;;1.77;100.00
78064;BME280;67429;51.596;-3.264;2024-02-26T00:45:08;97923.31;;;0.90;100.00
78064;BME280;67429;51.596;-3.264;2024-02-26T00:47:34;97952.68;;;0.48;100.00
78064;BME280;67429;51.596;-3.264;2024-02-26T00:49:59;97956.80;;;1.23;100.00
78064;BME280;67429;51.596;-3.264;2024-02-26T00:52:25;97958.47;;;0.81;100.00
78064;BME280;67429;51.596;-3.264;2024-02-26T00:54:51;97962.47;;;0.89;100.00
78064;BME280;67429;51.596;-3.264;2024-02-26T00:57:18;97964.25;;;1.16;100.00
78064;BME280;67429;51.596;-3.264;2024-02-26T00:59:44;97972.78;;;0.58;100.00
78064;BME280;67429;51.596;-3.264;2024-02-26T01:02:08;97979.00;;;0.50;100.00
78064;BME280;67429;51.596;-3.264;2024-02-26T01:04:34;97965.43;;;0.66;100.00
78064;BME280;67429;51.596;-3.264;2024-02-26T01:06:59;97995.53;;;0.56;100.00
78064;BME280;67429;51.596;-3.264;2024-02-26T01:09:27;97998.55;;;0.52;100.00
78064;BME280;67429;51.596;-3.264;2024-02-26T01:11:51;98014.92;;;1.20;100.00
78064;BME280;67429;51.596;-3.264;2024-02-26T01:14:18;98020.71;;;0.75;100.00
78064;BME280;67429;51.596;-3.264;2024-02-26T01:16:43;97998.86;;;1.05;100.00
78064;BME280;67429;51.596;-3.264;2024-02-26T01:19:09;98017.10;;;0.78;100.00
78064;BME280;67429;51.596;-3.264;2024-02-26T01:21:34;98026.55;;;1.04;100.00
78064;BME280;67429;51.596;-3.264;2024-02-26T01:24:00;98013.73;;;0.77;100.00
78064;BME280;67429;51.596;-3.264;2024-02-26T01:26:26;98025.28;;;0.99;100.00
78064;BME280;67429;51.596;-3.264;2024-02-26T01:28:53;98039.02;;;1.07;100.00
78064;BME280;67429;51.596;-3.264;2024-02-26T01:31:17;98040.41;;;1.08;100.00
78064;BME280;67429;51.596;-3.264;2024-02-26T01:33:45;98044.93;;;0.36;100.00
78064;BME280;67429;51.596;-3.264;2024-02-26T01:36:08;98058.81;;;0.90;100.00
78064;BME280;67429;51.596;-3.264;2024-02-26T01:38:34;98063.70;;;1.13;100.00
78064;BME280;67429;51.596;-3.264;2024-02-26T01:41:00;98066.64;;;0.78;100.00
78064;BME280;67429;51.596;-3.264;2024-02-26T01:43:26;98068.20;;;0.87;100.00
78064;BME280;67429;51.596;-3.264;2024-02-26T01:45:51;98068.67;;;1.14;100.00
78064;BME280;67429;51.596;-3.264;2024-02-26T01:48:17;98080.03;;;1.60;100.00
78064;BME280;67429;51.596;-3.264;2024-02-26T01:50:43;98086.93;;;0.68;100.00
78064;BME280;67429;51.596;-3.264;2024-02-26T01:53:10;98087.88;;;0.92;100.00
78064;BME280;67429;51.596;-3.264;2024-02-26T01:55:34;98093.22;;;0.92;100.00
78064;BME280;67429;51.596;-3.264;2024-02-26T01:58:01;98097.39;;;0.88;100.00
78064;BME280;67429;51.596;-3.264;2024-02-26T02:00:26;98111.92;;;0.70;100.00
78064;BME280;67429;51.596;-3.264;2024-02-26T02:02:51;98115.50;;;1.09;100.00
78064;BME280;67429;51.596;-3.264;2024-02-26T02:05:20;98118.08;;;0.74;100.00
78064;BME280;67429;51.596;-3.264;2024-02-26T02:07:43;98131.08;;;0.79;100.00
78064;BME280;67429;51.596;-3.264;2024-02-26T02:10:09;98123.18;;;0.37;100.00
78064;BME280;67429;51.596;-3.264;2024-02-26T02:12:36;98156.63;;;0.52;100.00
78064;BME280;67429;51.596;-3.264;2024-02-26T02:15:01;98143.32;;;0.43;100.00
78064;BME280;67429;51.596;-3.264;2024-02-26T02:17:27;98145.11;;;0.90;100.00
78064;BME280;67429;51.596;-3.264;2024-02-26T02:19:52;98148.26;;;0.76;100.00
78064;BME280;67429;51.596;-3.264;2024-02-26T02:22:18;98149.88;;;0.81;100.00
78064;BME280;67429;51.596;-3.264;2024-02-26T02:24:45;98169.78;;;0.61;100.00
78064;BME280;67429;51.596;-3.264;2024-02-26T02:27:10;98156.57;;;1.03;100.00
78064;BME280;67429;51.596;-3.264;2024-02-26T02:29:36;98160.75;;;1.30;100.00
78064;BME280;67429;51.596;-3.264;2024-02-26T02:32:02;98180.86;;;1.18;100.00
78064;BME280;67429;51.596;-3.264;2024-02-26T02:34:28;98176.95;;;0.75;100.00
78064;BME280;67429;51.596;-3.264;2024-02-26T02:36:53;98188.01;;;1.19;100.00
78064;BME280;67429;51.596;-3.264;2024-02-26T02:39:18;98192.59;;;1.69;100.00
78064;BME280;67429;51.596;-3.264;2024-02-26T02:41:44;98213.49;;;1.20;100.00
78064;BME280;67429;51.596;-3.264;2024-02-26T02:44:09;98230.82;;;0.96;100.00
78064;BME280;67429;51.596;-3.264;2024-02-26T02:46:35;98229.96;;;0.86;100.00
78064;BME280;67429;51.596;-3.264;2024-02-26T02:49:01;98217.17;;;0.99;100.00
78064;BME280;67429;51.596;-3.264;2024-02-26T02:51:26;98230.70;;;0.60;100.00
78064;BME280;67429;51.596;-3.264;2024-02-26T02:53:53;98240.54;;;0.40;100.00
78064;BME280;67429;51.596;-3.264;2024-02-26T02:56:18;98242.60;;;1.06;100.00
78064;BME280;67429;51.596;-3.264;2024-02-26T02:58:44;98250.52;;;0.74;100.00
78064;BME280;67429;51.596;-3.264;2024-02-26T03:01:13;98249.76;;;0.67;100.00
78064;BME280;67429;51.596;-3.264;2024-02-26T03:03:35;98252.97;;;0.94;100.00
78064;BME280;67429;51.596;-3.264;2024-02-26T03:06:01;98260.71;;;1.15;100.00
78064;BME280;67429;51.596;-3.264;2024-02-26T03:08:27;98257.92;;;0.98;100.00
78064;BME280;67429;51.596;-3.264;2024-02-26T03:10:53;98268.31;;;0.95;100.00
78064;BME280;67429;51.596;-3.264;2024-02-26T03:13:18;98274.73;;;1.53;100.00
78064;BME280;67429;51.596;-3.264;2024-02-26T03:15:44;98272.15;;;1.33;100.00
78064;BME280;67429;51.596;-3.264;2024-02-26T03:18:10;98277.03;;;1.05;100.00
78064;BME280;67429;51.596;-3.264;2024-02-26T03:20:36;98303.03;;;0.21;100.00
78064;BME280;67429;51.596;-3.264;2024-02-26T03:23:01;98303.64;;;0.35;100.00
78064;BME280;67429;51.596;-3.264;2024-02-26T03:25:28;98299.26;;;0.92;100.00
78064;BME280;67429;51.596;-3.264;2024-02-26T03:27:53;98314.75;;;0.79;100.00
78064;BME280;67429;51.596;-3.264;2024-02-26T03:30:19;98309.80;;;0.58;100.00
78064;BME280;67429;51.596;-3.264;2024-02-26T03:32:44;98308.44;;;1.32;100.00
78064;BME280;67429;51.596;-3.264;2024-02-26T03:35:10;98333.82;;;0.99;100.00
78064;BME280;67429;51.596;-3.264;2024-02-26T03:37:36;98334.61;;;0.75;100.00
78064;BME280;67429;51.596;-3.264;2024-02-26T03:40:02;98329.77;;;0.71;100.00
78064;BME280;67429;51.596;-3.264;2024-02-26T03:42:28;98331.31;;;1.05;100.00
78064;BME280;67429;51.596;-3.264;2024-02-26T03:44:53;98335.45;;;0.68;100.00
78064;BME280;67429;51.596;-3.264;2024-02-26T03:47:21;98349.38;;;0.41;100.00
78064;BME280;67429;51.596;-3.264;2024-02-26T03:49:45;98342.33;;;0.89;100.00
78064;BME280;67429;51.596;-3.264;2024-02-26T03:52:11;98352.93;;;0.85;100.00
78064;BME280;67429;51.596;-3.264;2024-02-26T03:54:37;98367.69;;;0.65;100.00
78064;BME280;67429;51.596;-3.264;2024-02-26T03:57:03;98350.14;;;1.27;100.00
78064;BME280;67429;51.596;-3.264;2024-02-26T03:59:29;98366.58;;;1.21;100.00
78064;BME280;67429;51.596;-3.264;2024-02-26T04:01:55;98362.13;;;1.09;100.00
78064;BME280;67429;51.596;-3.264;2024-02-26T04:04:20;98384.72;;;0.81;100.00
78064;BME280;67429;51.596;-3.264;2024-02-26T04:06:45;98379.25;;;0.90;100.00
78064;BME280;67429;51.596;-3.264;2024-02-26T04:09:11;98391.08;;;0.87;100.00
78064;BME280;67429;51.596;-3.264;2024-02-26T04:11:37;98408.41;;;0.90;100.00
78064;BME280;67429;51.596;-3.264;2024-02-26T04:14:04;98399.12;;;1.56;100.00
78064;BME280;67429;51.596;-3.264;2024-02-26T04:16:28;98403.41;;;1.62;100.00
78064;BME280;67429;51.596;-3.264;2024-02-26T04:18:54;98413.41;;;1.40;100.00
78064;BME280;67429;51.596;-3.264;2024-02-26T04:21:20;98426.74;;;0.74;100.00
78064;BME280;67429;51.596;-3.264;2024-02-26T04:23:47;98418.44;;;1.05;100.00
78064;BME280;67429;51.596;-3.264;2024-02-26T04:26:12;98428.98;;;0.64;100.00
78064;BME280;67429;51.596;-3.264;2024-02-26T04:28:38;98442.47;;;1.79;100.00
78064;BME280;67429;51.596;-3.264;2024-02-26T04:31:03;98444.33;;;0.84;100.00
78064;BME280;67429;51.596;-3.264;2024-02-26T04:33:29;98449.09;;;1.00;100.00
78064;BME280;67429;51.596;-3.264;2024-02-26T04:35:56;98454.05;;;1.15;100.00
78064;BME280;67429;51.596;-3.264;2024-02-26T04:38:20;98464.86;;;1.34;100.00
78064;BME280;67429;51.596;-3.264;2024-02-26T04:40:47;98462.05;;;1.10;100.00
78064;BME280;67429;51.596;-3.264;2024-02-26T04:43:12;98476.12;;;1.20;100.00
78064;BME280;67429;51.596;-3.264;2024-02-26T04:45:38;98484.47;;;1.76;100.00
78064;BME280;67429;51.596;-3.264;2024-02-26T04:48:04;98487.73;;;1.27;100.00
78064;BME280;67429;51.596;-3.264;2024-02-26T04:50:31;98473.40;;;1.12;100.00
78064;BME280;67429;51.596;-3.264;2024-02-26T04:52:56;98492.31;;;0.67;100.00
78064;BME280;67429;51.596;-3.264;2024-02-26T04:55:21;98493.87;;;0.74;100.00
78064;BME280;67429;51.596;-3.264;2024-02-26T04:57:46;98496.21;;;0.33;100.00
78064;BME280;67429;51.596;-3.264;2024-02-26T05:00:14;98506.42;;;0.75;100.00
78064;BME280;67429;51.596;-3.264;2024-02-26T05:02:39;98514.87;;;0.70;100.00
78064;BME280;67429;51.596;-3.264;2024-02-26T05:05:04;98520.93;;;0.45;100.00
78064;BME280;67429;51.596;-3.264;2024-02-26T05:07:29;98524.17;;;0.87;100.00
78064;BME280;67429;51.596;-3.264;2024-02-26T05:09:55;98533.52;;;0.55;100.00
78064;BME280;67429;51.596;-3.264;2024-02-26T05:12:26;98532.06;;;1.06;100.00
78064;BME280;67429;51.596;-3.264;2024-02-26T05:14:47;98544.80;;;0.81;100.00
78064;BME280;67429;51.596;-3.264;2024-02-26T05:17:13;98557.97;;;0.78;100.00
78064;BME280;67429;51.596;-3.264;2024-02-26T05:19:38;98554.84;;;1.04;100.00
78064;BME280;67429;51.596;-3.264;2024-02-26T05:22:04;98528.98;;;0.70;100.00
78064;BME280;67429;51.596;-3.264;2024-02-26T05:24:29;98566.28;;;0.32;100.00
78064;BME280;67429;51.596;-3.264;2024-02-26T05:26:55;98565.44;;;0.23;100.00
78064;BME280;67429;51.596;-3.264;2024-02-26T05:29:21;98585.02;;;0.56;100.00
78064;BME280;67429;51.596;-3.264;2024-02-26T05:31:48;98547.41;;;0.12;100.00
78064;BME280;67429;51.596;-3.264;2024-02-26T05:34:13;98592.35;;;0.71;100.00
78064;BME280;67429;51.596;-3.264;2024-02-26T05:36:38;98601.96;;;0.40;100.00
78064;BME280;67429;51.596;-3.264;2024-02-26T05:39:06;98601.04;;;0.97;100.00
78064;BME280;67429;51.596;-3.264;2024-02-26T05:41:31;98623.77;;;0.55;100.00
78064;BME280;67429;51.596;-3.264;2024-02-26T05:43:56;98633.36;;;0.16;100.00
78064;BME280;67429;51.596;-3.264;2024-02-26T05:46:22;98645.18;;;-0.14;100.00
78064;BME280;67429;51.596;-3.264;2024-02-26T05:48:48;98641.77;;;0.60;100.00
78064;BME280;67429;51.596;-3.264;2024-02-26T05:51:13;98663.82;;;0.12;100.00
78064;BME280;67429;51.596;-3.264;2024-02-26T05:53:38;98647.82;;;0.21;100.00
78064;BME280;67429;51.596;-3.264;2024-02-26T05:56:05;98662.66;;;0.45;100.00
78064;BME280;67429;51.596;-3.264;2024-02-26T05:58:30;98669.53;;;0.95;100.00
78064;BME280;67429;51.596;-3.264;2024-02-26T06:00:58;98679.27;;;1.43;100.00
78064;BME280;67429;51.596;-3.264;2024-02-26T06:03:23;98689.06;;;0.75;100.00
78064;BME280;67429;51.596;-3.264;2024-02-26T06:05:47;98688.39;;;0.74;100.00
78064;BME280;67429;51.596;-3.264;2024-02-26T06:08:13;98694.30;;;1.95;100.00
78064;BME280;67429;51.596;-3.264;2024-02-26T06:10:39;98711.40;;;0.44;100.00
78064;BME280;67429;51.596;-3.264;2024-02-26T06:13:05;98717.24;;;1.43;100.00
78064;BME280;67429;51.596;-3.264;2024-02-26T06:15:35;98740.71;;;0.74;100.00
78064;BME280;67429;51.596;-3.264;2024-02-26T06:17:56;98733.20;;;0.92;100.00
78064;BME280;67429;51.596;-3.264;2024-02-26T06:20:22;98734.74;;;0.84;100.00
78064;BME280;67429;51.596;-3.264;2024-02-26T06:22:53;98742.33;;;1.67;100.00
78064;BME280;67429;51.596;-3.264;2024-02-26T06:25:14;98745.23;;;1.75;100.00
78064;BME280;67429;51.596;-3.264;2024-02-26T06:27:39;98752.83;;;1.13;100.00
78064;BME280;67429;51.596;-3.264;2024-02-26T06:30:06;98746.89;;;1.31;100.00
78064;BME280;67429;51.596;-3.264;2024-02-26T06:32:32;98756.74;;;1.22;100.00
78064;BME280;67429;51.596;-3.264;2024-02-26T06:34:56;98773.58;;;1.51;100.00
78064;BME280;67429;51.596;-3.264;2024-02-26T06:37:22;98772.93;;;1.20;100.00
78064;BME280;67429;51.596;-3.264;2024-02-26T06:39:48;98774.81;;;0.78;100.00
78064;BME280;67429;51.596;-3.264;2024-02-26T06:42:14;98782.05;;;1.07;100.00
78064;BME280;67429;51.596;-3.264;2024-02-26T06:44:40;98781.70;;;0.47;100.00
78064;BME280;67429;51.596;-3.264;2024-02-26T06:47:05;98794.95;;;0.49;100.00
78064;BME280;67429;51.596;-3.264;2024-02-26T06:49:31;98794.21;;;1.17;100.00
78064;BME280;67429;51.596;-3.264;2024-02-26T06:51:57;98785.86;;;0.77;100.00
78064;BME280;67429;51.596;-3.264;2024-02-26T06:54:22;98788.93;;;0.95;100.00
78064;BME280;67429;51.596;-3.264;2024-02-26T06:56:49;98810.18;;;0.74;100.00
78064;BME280;67429;51.596;-3.264;2024-02-26T06:59:14;98816.55;;;1.19;100.00
78064;BME280;67429;51.596;-3.264;2024-02-26T07:01:40;98827.57;;;-0.14;100.00
78064;BME280;67429;51.596;-3.264;2024-02-26T07:04:05;98836.07;;;0.19;100.00
78064;BME280;67429;51.596;-3.264;2024-02-26T07:06:31;98838.55;;;0.17;100.00
78064;BME280;67429;51.596;-3.264;2024-02-26T07:08:57;98845.28;;;0.05;100.00
78064;BME280;67429;51.596;-3.264;2024-02-26T07:11:29;98854.37;;;0.09;100.00
78064;BME280;67429;51.596;-3.264;2024-02-26T07:13:49;98863.69;;;0.88;100.00
78064;BME280;67429;51.596;-3.264;2024-02-26T07:16:14;98875.55;;;0.37;100.00
78064;BME280;67429;51.596;-3.264;2024-02-26T07:18:40;98875.24;;;0.53;100.00
78064;BME280;67429;51.596;-3.264;2024-02-26T07:21:06;98865.32;;;-0.20;100.00
78064;BME280;67429;51.596;-3.264;2024-02-26T07:23:32;98877.15;;;0.43;100.00
78064;BME280;67429;51.596;-3.264;2024-02-26T07:25:59;98874.19;;;0.35;100.00
78064;BME280;67429;51.596;-3.264;2024-02-26T07:28:25;98892.32;;;0.64;100.00
78064;BME280;67429;51.596;-3.264;2024-02-26T07:30:49;98899.55;;;0.49;100.00
78064;BME280;67429;51.596;-3.264;2024-02-26T07:33:15;98904.81;;;0.80;100.00
78064;BME280;67429;51.596;-3.264;2024-02-26T07:35:41;98903.68;;;0.57;100.00
78064;BME280;67429;51.596;-3.264;2024-02-26T07:38:06;98902.52;;;0.44;100.00
78064;BME280;67429;51.596;-3.264;2024-02-26T07:40:32;98912.35;;;0.45;100.00
78064;BME280;67429;51.596;-3.264;2024-02-26T07:42:58;98904.61;;;-0.21;100.00
78064;BME280;67429;51.596;-3.264;2024-02-26T07:45:24;98916.55;;;0.43;100.00
78064;BME280;67429;51.596;-3.264;2024-02-26T07:47:49;98920.22;;;1.42;100.00
78064;BME280;67429;51.596;-3.264;2024-02-26T07:50:15;98925.89;;;1.11;100.00
78064;BME280;67429;51.596;-3.264;2024-02-26T07:52:41;98937.27;;;1.36;100.00
78064;BME280;67429;51.596;-3.264;2024-02-26T07:55:07;98949.82;;;0.71;100.00
78064;BME280;67429;51.596;-3.264;2024-02-26T07:57:34;98932.66;;;0.72;100.00
78064;BME280;67429;51.596;-3.264;2024-02-26T08:00:01;98951.98;;;0.69;100.00
78064;BME280;67429;51.596;-3.264;2024-02-26T08:02:24;98967.39;;;0.81;100.00
78064;BME280;67429;51.596;-3.264;2024-02-26T08:04:50;98976.85;;;1.09;100.00
78064;BME280;67429;51.596;-3.264;2024-02-26T08:07:16;98973.39;;;1.07;100.00
78064;BME280;67429;51.596;-3.264;2024-02-26T08:09:41;98975.50;;;1.62;100.00
78064;BME280;67429;51.596;-3.264;2024-02-26T08:12:07;99000.42;;;1.22;100.00
78064;BME280;67429;51.596;-3.264;2024-02-26T08:14:33;98972.88;;;1.65;100.00
78064;BME280;67429;51.596;-3.264;2024-02-26T08:16:59;98986.74;;;1.92;100.00
78064;BME280;67429;51.596;-3.264;2024-02-26T08:19:24;98977.34;;;2.09;100.00
78064;BME280;67429;51.596;-3.264;2024-02-26T08:21:52;98982.93;;;1.58;100.00
78064;BME280;67429;51.596;-3.264;2024-02-26T08:24:16;98979.13;;;1.92;100.00
78064;BME280;67429;51.596;-3.264;2024-02-26T08:26:43;98994.83;;;1.89;100.00
78064;BME280;67429;51.596;-3.264;2024-02-26T08:29:07;98993.72;;;1.80;100.00
78064;BME280;67429;51.596;-3.264;2024-02-26T08:31:33;99003.77;;;2.21;100.00
78064;BME280;67429;51.596;-3.264;2024-02-26T08:33:59;99012.66;;;1.78;100.00
78064;BME280;67429;51.596;-3.264;2024-02-26T08:36:24;99006.74;;;2.26;100.00
78064;BME280;67429;51.596;-3.264;2024-02-26T08:41:16;99019.74;;;1.94;100.00
78064;BME280;67429;51.596;-3.264;2024-02-26T08:43:41;99028.57;;;2.06;100.00
78064;BME280;67429;51.596;-3.264;2024-02-26T08:46:08;99029.69;;;2.92;100.00
78064;BME280;67429;51.596;-3.264;2024-02-26T08:48:33;99045.39;;;2.41;100.00
78064;BME280;67429;51.596;-3.264;2024-02-26T08:50:59;99063.92;;;2.66;100.00
78064;BME280;67429;51.596;-3.264;2024-02-26T08:53:24;99061.82;;;2.34;100.00
78064;BME280;67429;51.596;-3.264;2024-02-26T08:55:50;99068.69;;;2.70;100.00
78064;BME280;67429;51.596;-3.264;2024-02-26T08:58:16;99074.91;;;2.98;100.00
78064;BME280;67429;51.596;-3.264;2024-02-26T09:00:42;99067.25;;;2.45;100.00
78064;BME280;67429;51.596;-3.264;2024-02-26T09:03:08;99079.26;;;2.65;100.00
78064;BME280;67429;51.596;-3.264;2024-02-26T09:05:33;99084.41;;;3.70;100.00
78064;BME280;67429;51.596;-3.264;2024-02-26T09:07:59;99093.94;;;3.33;100.00
78064;BME280;67429;51.596;-3.264;2024-02-26T09:10:24;99100.09;;;3.32;100.00
78064;BME280;67429;51.596;-3.264;2024-02-26T09:12:50;99102.74;;;2.59;100.00
78064;BME280;67429;51.596;-3.264;2024-02-26T09:15:16;99111.07;;;2.41;100.00
78064;BME280;67429;51.596;-3.264;2024-02-26T09:17:42;99119.62;;;2.81;100.00
78064;BME280;67429;51.596;-3.264;2024-02-26T09:20:08;99124.19;;;3.00;100.00
78064;BME280;67429;51.596;-3.264;2024-02-26T09:22:33;99135.05;;;2.73;100.00
78064;BME280;67429;51.596;-3.264;2024-02-26T09:24:59;99115.98;;;2.50;100.00
78064;BME280;67429;51.596;-3.264;2024-02-26T09:27:24;99127.48;;;2.36;100.00
78064;BME280;67429;51.596;-3.264;2024-02-26T09:29:50;99130.71;;;2.37;100.00
78064;BME280;67429;51.596;-3.264;2024-02-26T09:32:16;99140.05;;;2.29;100.00
78064;BME280;67429;51.596;-3.264;2024-02-26T09:34:41;99136.73;;;2.30;100.00
78064;BME280;67429;51.596;-3.264;2024-02-26T09:37:07;99161.65;;;2.59;100.00
78064;BME280;67429;51.596;-3.264;2024-02-26T09:39:33;99148.82;;;2.04;100.00
78064;BME280;67429;51.596;-3.264;2024-02-26T09:41:59;99162.90;;;2.84;100.00
78064;BME280;67429;51.596;-3.264;2024-02-26T09:44:25;99158.75;;;2.19;100.00
78064;BME280;67429;51.596;-3.264;2024-02-26T09:46:51;99160.43;;;2.38;100.00
78064;BME280;67429;51.596;-3.264;2024-02-26T09:49:16;99182.17;;;1.64;100.00
78064;BME280;67429;51.596;-3.264;2024-02-26T09:51:41;99177.65;;;2.19;100.00
78064;BME280;67429;51.596;-3.264;2024-02-26T09:54:09;99184.62;;;2.61;100.00
78064;BME280;67429;51.596;-3.264;2024-02-26T09:56:32;99169.29;;;3.74;100.00
78064;BME280;67429;51.596;-3.264;2024-02-26T09:58:58;99183.79;;;3.06;100.00
78064;BME280;67429;51.596;-3.264;2024-02-26T10:01:24;99175.18;;;2.76;100.00
78064;BME280;67429;51.596;-3.264;2024-02-26T10:03:54;99175.84;;;2.83;100.00
78064;BME280;67429;51.596;-3.264;2024-02-26T10:06:15;99178.99;;;3.60;100.00
78064;BME280;67429;51.596;-3.264;2024-02-26T10:08:42;99195.80;;;3.13;100.00
78064;BME280;67429;51.596;-3.264;2024-02-26T10:11:07;99200.22;;;3.13;100.00
78064;BME280;67429;51.596;-3.264;2024-02-26T10:13:32;99202.40;;;2.55;100.00
78064;BME280;67429;51.596;-3.264;2024-02-26T10:15:58;99209.47;;;2.61;100.00
78064;BME280;67429;51.596;-3.264;2024-02-26T10:18:24;99213.70;;;2.06;100.00
78064;BME280;67429;51.596;-3.264;2024-02-26T10:21:00;99197.74;;;3.35;100.00
78064;BME280;67429;51.596;-3.264;2024-02-26T10:23:16;99203.88;;;3.08;100.00
78064;BME280;67429;51.596;-3.264;2024-02-26T10:28:06;99199.02;;;4.24;100.00
78064;BME280;67429;51.596;-3.264;2024-02-26T10:30:36;99224.53;;;5.10;100.00
78064;BME280;67429;51.596;-3.264;2024-02-26T10:32:59;99224.30;;;4.25;100.00
78064;BME280;67429;51.596;-3.264;2024-02-26T10:35:23;99242.89;;;3.84;100.00
78064;BME280;67429;51.596;-3.264;2024-02-26T10:37:50;99253.88;;;3.18;100.00
78064;BME280;67429;51.596;-3.264;2024-02-26T10:40:15;99245.93;;;3.71;100.00
78064;BME280;67429;51.596;-3.264;2024-02-26T10:42:40;99267.28;;;2.71;100.00
78064;BME280;67429;51.596;-3.264;2024-02-26T10:45:06;99258.45;;;3.65;100.00
78064;BME280;67429;51.596;-3.264;2024-02-26T10:47:31;99260.60;;;5.27;100.00
78064;BME280;67429;51.596;-3.264;2024-02-26T10:49:56;99265.10;;;4.09;100.00
78064;BME280;67429;51.596;-3.264;2024-02-26T10:52:23;99268.12;;;4.18;100.00
78064;BME280;67429;51.596;-3.264;2024-02-26T10:54:48;99269.49;;;4.18;100.00
78064;BME280;67429;51.596;-3.264;2024-02-26T10:57:15;99264.38;;;3.80;100.00
78064;BME280;67429;51.596;-3.264;2024-02-26T10:59:39;99268.89;;;4.01;100.00
78064;BME280;67429;51.596;-3.264;2024-02-26T11:02:05;99255.98;;;4.09;100.00
78064;BME280;67429;51.596;-3.264;2024-02-26T11:04:31;99272.42;;;4.20;100.00
78064;BME280;67429;51.596;-3.264;2024-02-26T11:06:58;99255.01;;;3.78;100.00
78064;BME280;67429;51.596;-3.264;2024-02-26T11:09:22;99279.71;;;3.56;100.00
78064;BME280;67429;51.596;-3.264;2024-02-26T11:11:48;99275.46;;;4.42;100.00
78064;BME280;67429;51.596;-3.264;2024-02-26T11:14:14;99275.37;;;4.83;100.00
78064;BME280;67429;51.596;-3.264;2024-02-26T11:16:39;99281.90;;;4.53;100.00
78064;BME280;67429;51.596;-3.264;2024-02-26T11:19:06;99270.19;;;4.89;100.00
78064;BME280;67429;51.596;-3.264;2024-02-26T11:21:30;99279.74;;;5.28;100.00
78064;BME280;67429;51.596;-3.264;2024-02-26T11:23:56;99285.16;;;6.22;100.00
78064;BME280;67429;51.596;-3.264;2024-02-26T11:26:22;99290.97;;;5.68;100.00
78064;BME280;67429;51.596;-3.264;2024-02-26T11:28:47;99298.93;;;5.58;100.00
78064;BME280;67429;51.596;-3.264;2024-02-26T11:31:13;99290.08;;;7.43;100.00
78064;BME280;67429;51.596;-3.264;2024-02-26T11:33:38;99299.17;;;6.76;100.00
78064;BME280;67429;51.596;-3.264;2024-02-26T11:36:08;99297.34;;;6.50;100.00
78064;BME280;67429;51.596;-3.264;2024-02-26T11:38:29;99320.14;;;5.59;100.00
78064;BME280;67429;51.596;-3.264;2024-02-26T11:40:55;99327.56;;;4.90;100.00
78064;BME280;67429;51.596;-3.264;2024-02-26T11:43:23;99336.67;;;4.63;100.00
78064;BME280;67429;51.596;-3.264;2024-02-26T11:45:49;99331.67;;;4.82;100.00
78064;BME280;67429;51.596;-3.264;2024-02-26T11:48:13;99337.80;;;4.38;100.00
78064;BME280;67429;51.596;-3.264;2024-02-26T11:50:40;99337.08;;;6.78;100.00
78064;BME280;67429;51.596;-3.264;2024-02-26T11:55:32;99331.44;;;5.03;100.00
78064;BME280;67429;51.596;-3.264;2024-02-26T11:57:55;99336.90;;;4.65;100.00
78064;BME280;67429;51.596;-3.264;2024-02-26T12:00:21;99335.95;;;5.23;100.00
78064;BME280;67429;51.596;-3.264;2024-02-26T12:02:49;99335.28;;;5.93;100.00
78064;BME280;67429;51.596;-3.264;2024-02-26T12:05:14;99340.29;;;5.16;100.00
78064;BME280;67429;51.596;-3.264;2024-02-26T12:07:40;99344.15;;;4.11;100.00
78064;BME280;67429;51.596;-3.264;2024-02-26T12:10:15;99348.50;;;4.80;100.00
78064;BME280;67429;51.596;-3.264;2024-02-26T12:12:29;99352.94;;;4.50;100.00
78064;BME280;67429;51.596;-3.264;2024-02-26T12:14:56;99350.12;;;4.36;100.00
78064;BME280;67429;51.596;-3.264;2024-02-26T12:17:22;99360.94;;;5.30;100.00
78064;BME280;67429;51.596;-3.264;2024-02-26T12:19:46;99366.05;;;4.90;100.00
78064;BME280;67429;51.596;-3.264;2024-02-26T12:22:13;99375.80;;;5.12;100.00
78064;BME280;67429;51.596;-3.264;2024-02-26T12:24:37;99380.91;;;6.48;100.00
78064;BME280;67429;51.596;-3.264;2024-02-26T12:27:04;99385.51;;;6.60;100.00
78064;BME280;67429;51.596;-3.264;2024-02-26T12:29:28;99385.69;;;5.89;100.00
78064;BME280;67429;51.596;-3.264;2024-02-26T12:31:54;99380.98;;;6.35;99.66
78064;BME280;67429;51.596;-3.264;2024-02-26T12:34:21;99376.39;;;7.27;96.73
78064;BME280;67429;51.596;-3.264;2024-02-26T12:36:46;99370.99;;;6.87;96.65
78064;BME280;67429;51.596;-3.264;2024-02-26T12:39:12;99374.86;;;6.38;98.11
78064;BME280;67429;51.596;-3.264;2024-02-26T12:41:38;99373.83;;;6.83;100.00
78064;BME280;67429;51.596;-3.264;2024-02-26T12:44:03;99374.92;;;7.18;100.00
78064;BME280;67429;51.596;-3.264;2024-02-26T12:46:28;99378.05;;;7.46;96.02
78064;BME280;67429;51.596;-3.264;2024-02-26T12:48:56;99381.96;;;6.99;98.13